createdAt,value
2023-01-23T05:02:14.088Z,0.38
2023-01-23T05:06:28.068Z,0.52
2023-01-23T05:10:41.984Z,0.43
2023-01-23T05:14:56.320Z,0.49
2023-01-23T05:19:08.313Z,0.38
2023-01-23T05:23:21.495Z,0.38
2023-01-23T05:27:35.633Z,0.37
2023-01-23T05:31:47.709Z,0.46
2023-01-23T05:36:18.625Z,0.43
2023-01-23T05:40:30.456Z,0.38
2023-01-23T05:45:04.995Z,0.49
2023-01-23T05:49:25.810Z,0.45
2023-01-23T05:53:37.370Z,0.53
2023-01-23T05:57:48.841Z,0.48
2023-01-23T06:02:34.557Z,0.37
2023-01-23T06:07:14.037Z,0.36
2023-01-23T06:11:25.792Z,0.37
2023-01-23T06:15:37.871Z,0.31
2023-01-23T06:19:54.210Z,0.33
2023-01-23T06:24:06.178Z,0.18
2023-01-23T06:28:17.750Z,0.31
2023-01-23T06:32:29.362Z,0.40
2023-01-23T06:36:42.465Z,0.37
2023-01-23T06:40:54.188Z,0.29
2023-01-23T06:45:15.885Z,0.29
2023-01-23T06:49:27.377Z,0.33
2023-01-23T06:53:38.888Z,0.34
2023-01-23T06:57:50.462Z,0.43
2023-01-23T07:02:02.856Z,0.39
2023-01-23T07:06:27.688Z,0.30
2023-01-23T07:10:39.782Z,0.26
2023-01-23T07:14:51.239Z,0.37
2023-01-23T07:19:08.211Z,0.34
2023-01-23T07:23:23.693Z,0.40
2023-01-23T07:27:35.176Z,0.41
2023-01-23T07:31:46.684Z,0.32
2023-01-23T07:35:58.160Z,0.37
2023-01-23T07:40:10.338Z,0.45
2023-01-23T07:44:22.683Z,0.63
2023-01-23T07:48:34.116Z,0.94
2023-01-23T07:52:45.569Z,0.78
2023-01-23T07:56:57.000Z,0.67
2023-01-23T08:01:11.930Z,0.56
2023-01-23T08:05:23.778Z,0.59
2023-01-23T08:09:35.259Z,0.62
2023-01-23T08:13:50.529Z,0.65
2023-01-23T08:18:01.949Z,0.50
2023-01-23T08:22:13.418Z,0.65
2023-01-23T08:26:24.841Z,0.68
2023-01-23T08:30:37.170Z,0.73
2023-01-23T08:34:48.950Z,0.86
2023-01-23T08:39:00.493Z,1.01
2023-01-23T08:43:13.879Z,0.94
2023-01-23T08:47:25.285Z,0.89
2023-01-23T08:51:36.749Z,1.01
2023-01-23T08:55:48.174Z,0.93
2023-01-23T08:59:59.630Z,0.59
2023-01-23T09:04:11.094Z,0.74
2023-01-23T09:08:22.578Z,0.91
2023-01-23T09:12:34.011Z,0.85
2023-01-23T09:16:45.543Z,0.96
2023-01-23T09:20:57.671Z,0.95
2023-01-23T09:25:09.652Z,1.10
2023-01-23T09:29:21.101Z,1.20
2023-01-23T09:33:33.172Z,1.30
2023-01-23T09:37:59.737Z,1.21
2023-01-23T09:42:18.244Z,1.13
2023-01-23T09:46:45.879Z,1.13
2023-01-23T09:51:15.882Z,1.17
2023-01-23T09:55:49.128Z,1.07
2023-01-23T10:00:15.517Z,1.08
2023-01-23T10:04:27.340Z,1.26
2023-01-23T10:08:50.918Z,1.30
2023-01-23T10:13:02.883Z,1.20
2023-01-23T10:17:45.233Z,1.32
2023-01-23T10:22:22.976Z,1.28
2023-01-23T10:26:40.588Z,1.24
2023-01-23T10:30:56.514Z,1.31
2023-01-23T10:35:27.436Z,1.21
2023-01-23T10:40:00.161Z,1.18
2023-01-23T10:44:19.995Z,1.24
2023-01-23T10:48:50.008Z,1.22
2023-01-23T10:53:16.957Z,1.18
2023-01-23T10:57:31.324Z,1.11
2023-01-23T11:02:14.613Z,1.17
2023-01-23T11:06:26.964Z,0.97
2023-01-23T11:10:38.414Z,0.97
2023-01-23T11:14:50.993Z,1.03
2023-01-23T11:19:18.159Z,1.08
2023-01-23T11:23:30.995Z,1.08
2023-01-23T11:27:56.853Z,1.06
2023-01-23T11:32:13.614Z,1.29
2023-01-23T11:36:50.072Z,1.30
2023-01-23T11:41:04.209Z,1.34
2023-01-23T11:45:18.796Z,1.31
2023-01-23T11:50:03.084Z,1.24
2023-01-23T11:55:03.397Z,1.16
2023-01-23T11:59:46.386Z,1.29
2023-01-23T12:04:30.224Z,1.15
2023-01-23T12:09:04.485Z,1.12
2023-01-23T12:13:34.205Z,1.13
2023-01-23T12:17:56.756Z,1.21
2023-01-23T12:22:15.597Z,1.08
2023-01-23T12:26:29.865Z,1.03
2023-01-23T12:31:08.196Z,0.97
2023-01-23T12:35:58.411Z,0.98
2023-01-23T12:40:22.794Z,1.08
2023-01-23T12:44:48.212Z,1.13
2023-01-23T12:49:49.156Z,1.07
2023-01-23T12:54:04.616Z,1.11
2023-01-23T12:58:18.619Z,1.14
2023-01-23T13:02:42.238Z,1.05
2023-01-23T13:07:20.825Z,0.99
2023-01-23T13:12:22.151Z,1.05
2023-01-23T13:16:33.962Z,1.11
2023-01-23T13:21:16.989Z,0.98
2023-01-23T13:25:38.127Z,1.03
2023-01-23T13:29:53.168Z,1.11
2023-01-23T13:34:16.868Z,1.01
2023-01-23T13:38:38.787Z,1.07
2023-01-23T13:42:50.684Z,1.01
2023-01-23T14:20:19.378Z,1.22
2023-01-23T14:24:53.250Z,1.10
2023-01-23T14:29:33.964Z,1.11
2023-01-23T14:33:45.411Z,1.24
2023-01-23T14:38:02.187Z,1.21
2023-01-23T14:42:25.502Z,1.24
2023-01-23T14:46:40.180Z,1.19
2023-01-23T14:51:03.019Z,1.26
2023-01-23T14:55:29.739Z,1.31
2023-01-23T14:59:43.173Z,1.26
2023-01-23T15:03:58.056Z,1.27
2023-01-23T15:08:21.083Z,1.21
2023-01-23T15:12:32.553Z,1.27
2023-01-23T15:16:44.928Z,1.24
2023-01-23T15:21:05.323Z,1.31
2023-01-23T15:25:30.626Z,1.35
2023-01-23T15:29:42.089Z,1.28
2023-01-23T15:33:55.488Z,1.25
2023-01-23T15:38:16.597Z,1.25
2023-01-23T15:42:32.776Z,1.24
2023-01-23T15:46:44.369Z,1.19
2023-01-23T15:50:55.876Z,1.13
2023-01-23T15:55:10.496Z,1.23
2023-01-23T15:59:21.994Z,1.19
2023-01-23T16:03:33.535Z,1.24
2023-01-23T16:07:46.998Z,1.17
2023-01-23T16:12:02.693Z,1.19
2023-01-23T16:16:16.137Z,1.08
2023-01-23T16:20:38.498Z,1.12
2023-01-23T16:24:50.309Z,1.19
2023-01-23T16:29:13.233Z,1.07
2023-01-23T16:33:25.065Z,1.09
2023-01-23T16:37:39.153Z,1.11
2023-01-23T16:41:51.057Z,0.97
2023-01-23T16:46:02.682Z,0.96
2023-01-23T16:50:17.040Z,0.96
2023-01-23T16:54:28.555Z,0.88
2023-01-23T16:58:40.967Z,0.83
2023-01-23T17:02:55.905Z,0.81
2023-01-23T17:07:14.162Z,0.76
2023-01-23T17:11:39.841Z,0.71
2023-01-23T17:15:54.777Z,0.71
2023-01-23T17:20:07.002Z,0.65
2023-01-23T17:24:18.509Z,0.62
2023-01-23T17:28:30.052Z,0.61
2023-01-23T17:32:41.535Z,0.59
2023-01-23T17:36:54.946Z,0.53
2023-01-23T17:41:06.551Z,0.57
2023-01-23T17:45:21.693Z,0.59
2023-01-23T17:49:33.340Z,0.52
2023-01-23T17:53:45.552Z,0.50
2023-01-23T17:57:57.036Z,0.55
2023-01-23T18:02:25.828Z,0.53
2023-01-23T18:06:37.293Z,0.51
2023-01-23T18:10:52.425Z,0.47
2023-01-23T18:15:13.847Z,0.59
2023-01-23T18:19:27.455Z,0.72
2023-01-23T18:23:39.475Z,0.68
2023-01-23T18:27:54.219Z,0.64
2023-01-23T18:32:33.608Z,0.68
2023-01-23T18:36:56.688Z,0.69
2023-01-23T18:41:20.212Z,0.67
2023-01-23T18:45:32.268Z,0.82
2023-01-23T18:49:44.149Z,0.74
2023-01-23T18:54:05.713Z,0.84
2023-01-23T18:58:38.929Z,0.80
2023-01-23T19:02:55.234Z,0.83
2023-01-23T19:07:15.894Z,0.89
2023-01-23T19:11:43.802Z,0.84
2023-01-23T19:16:18.495Z,0.80
2023-01-23T19:20:32.890Z,0.85
2023-01-23T19:24:44.633Z,0.84
2023-01-23T19:28:59.766Z,0.85
2023-01-23T19:33:18.484Z,0.77
2023-01-23T19:37:29.935Z,0.75
2023-01-23T19:41:46.825Z,0.84
2023-01-23T19:45:59.568Z,0.77
2023-01-23T19:50:16.880Z,0.81
2023-01-23T19:54:28.371Z,0.80
2023-01-23T19:58:41.416Z,0.79
2023-01-23T20:02:53.737Z,0.88
2023-01-23T20:07:05.203Z,0.72
2023-01-23T20:11:16.741Z,0.78
2023-01-23T20:15:29.850Z,0.71
2023-01-23T20:19:41.384Z,0.71
2023-01-23T20:23:52.925Z,0.80
2023-01-23T20:28:04.685Z,0.82
2023-01-23T20:32:16.168Z,0.77
2023-01-23T20:36:28.539Z,0.71
2023-01-23T20:40:39.961Z,0.76
2023-01-23T20:44:51.406Z,0.72
2023-01-23T20:49:02.935Z,0.67
2023-01-23T20:53:30.542Z,0.67
2023-01-23T20:58:00.766Z,0.52
2023-01-23T21:02:24.254Z,0.58
2023-01-23T21:06:35.734Z,0.60
2023-01-23T21:10:47.266Z,0.65
2023-01-23T21:14:59.051Z,0.58
2023-01-23T21:19:10.533Z,0.67
2023-01-23T21:23:21.983Z,0.66
2023-01-23T21:27:33.516Z,0.61
2023-01-23T21:31:45.118Z,0.58
2023-01-23T21:35:56.663Z,0.58
2023-01-23T21:40:09.004Z,0.76
2023-01-23T21:44:20.454Z,0.68
2023-01-23T21:48:33.276Z,0.74
2023-01-23T21:52:44.924Z,0.65
2023-01-23T21:56:56.448Z,0.68
2023-01-23T22:01:31.998Z,0.80
2023-01-23T22:05:43.561Z,0.87
2023-01-23T22:09:55.711Z,0.79
2023-01-23T22:14:07.259Z,0.77
2023-01-23T22:18:19.784Z,0.86
2023-01-23T22:22:31.211Z,0.80
2023-01-23T22:26:43.070Z,0.85
